Time;durP1;ratioP1;P1;durP2;ratioP2;P2;SDS_P1;SDS_P2;PMS_P1;PMS_P2;Temp;Humidity;BMP_temperature;BMP_pressure;BME280_temperature;BME280_humidity;BME280_pressure;Samples;Min_cycle;Max_cycle;Signal;HPM_P1;HPM_P2
2021/09/23 00:00:14;;;;;;;37.73;22.90;;;;;;;;;;5072666;28;20407;-48
2021/09/23 00:05:24;;;;;;;41.93;23.37;;;;;;;;;;5075945;28;20403;-47
2021/09/23 00:07:52;;;;;;;40.53;22.60;;;;;;;;;;5075780;28;20946;-47
2021/09/23 00:10:19;;;;;;;33.90;22.87;;;;;;;;;;5075523;28;20769;-45
2021/09/23 00:12:45;;;;;;;34.93;21.87;;;;;;;;;;5075448;28;20406;-46
2021/09/23 00:15:14;;;;;;;36.40;21.90;;;;;;;;;;5075582;28;20405;-45
2021/09/23 00:17:41;;;;;;;38.23;21.03;;;;;;;;;;5075416;28;20445;-45
2021/09/23 00:20:07;;;;;;;36.77;23.80;;;;;;;;;;5075290;28;20402;-48
2021/09/23 00:22:33;;;;;;;40.00;24.17;;;;;;;;;;5075445;28;20406;-47
2021/09/23 00:24:59;;;;;;;37.17;22.60;;;;;;;;;;5075418;28;20405;-49
2021/09/23 00:27:25;;;;;;;34.57;23.57;;;;;;;;;;5075138;28;20428;-45
2021/09/23 00:29:51;;;;;;;39.20;22.63;;;;;;;;;;5075183;28;20509;-45
2021/09/23 00:32:17;;;;;;;45.43;24.53;;;;;;;;;;5075202;28;20467;-49
2021/09/23 00:34:44;;;;;;;40.03;22.93;;;;;;;;;;5075233;28;20409;-45
2021/09/23 00:37:10;;;;;;;38.57;23.80;;;;;;;;;;5075065;28;20423;-47
2021/09/23 00:39:36;;;;;;;37.00;23.83;;;;;;;;;;5074938;28;20758;-49
2021/09/23 00:42:04;;;;;;;42.20;22.30;;;;;;;;;;5074876;28;20856;-46
2021/09/23 00:44:30;;;;;;;43.90;22.60;;;;;;;;;;5075094;28;20892;-45
2021/09/23 00:46:56;;;;;;;35.30;21.70;;;;;;;;;;5074940;28;20521;-46
2021/09/23 00:49:22;;;;;;;41.90;22.10;;;;;;;;;;5074858;28;20936;-46
2021/09/23 00:51:51;;;;;;;35.80;23.40;;;;;;;;;;5074758;28;20976;-45
2021/09/23 00:54:17;;;;;;;36.23;22.80;;;;;;;;;;5075402;28;20471;-45
2021/09/23 00:56:43;;;;;;;38.93;24.17;;;;;;;;;;5074618;28;20443;-47
2021/09/23 00:59:09;;;;;;;43.37;25.20;;;;;;;;;;5074575;28;20905;-49
2021/09/23 01:01:35;;;;;;;37.40;24.33;;;;;;;;;;5074368;28;20401;-45
2021/09/23 01:04:01;;;;;;;44.57;24.87;;;;;;;;;;5074153;28;20428;-45
2021/09/23 01:06:27;;;;;;;42.80;25.40;;;;;;;;;;5074147;28;20455;-45
2021/09/23 01:08:57;;;;;;;41.27;25.53;;;;;;;;;;5074599;28;20409;-46
2021/09/23 01:11:24;;;;;;;41.17;27.37;;;;;;;;;;5074538;28;20451;-46
2021/09/23 01:13:50;;;;;;;40.40;25.53;;;;;;;;;;5074390;28;20764;-45
2021/09/23 01:16:16;;;;;;;39.60;24.40;;;;;;;;;;5074491;28;20417;-45
2021/09/23 01:18:42;;;;;;;40.07;24.40;;;;;;;;;;5074180;28;20983;-46
2021/09/23 01:21:08;;;;;;;39.40;24.60;;;;;;;;;;5074542;28;20416;-45
2021/09/23 01:23:42;;;;;;;41.27;24.63;;;;;;;;;;5074354;28;20407;-45
2021/09/23 01:26:08;;;;;;;43.17;25.37;;;;;;;;;;5074284;28;20424;-45
2021/09/23 01:28:35;;;;;;;36.27;23.60;;;;;;;;;;5073997;28;20405;-47
2021/09/23 01:31:01;;;;;;;40.60;24.37;;;;;;;;;;5074068;28;20547;-45
2021/09/23 01:33:27;;;;;;;37.63;22.10;;;;;;;;;;5074058;28;20532;-45
2021/09/23 01:35:53;;;;;;;38.20;23.30;;;;;;;;;;5074094;28;20459;-46
2021/09/23 01:38:19;;;;;;;33.80;21.10;;;;;;;;;;5074009;28;20405;-46
2021/09/23 01:40:45;;;;;;;33.20;21.20;;;;;;;;;;5073803;28;20405;-46
2021/09/23 01:43:11;;;;;;;34.80;20.97;;;;;;;;;;5074057;28;20379;-46
2021/09/23 01:45:37;;;;;;;33.17;22.73;;;;;;;;;;5073912;28;20877;-46
2021/09/23 01:48:03;;;;;;;30.33;20.10;;;;;;;;;;5073596;28;20427;-47
2021/09/23 01:50:29;;;;;;;32.90;22.30;;;;;;;;;;5073508;28;20483;-46
2021/09/23 01:52:55;;;;;;;30.17;20.70;;;;;;;;;;5073688;28;20430;-46
2021/09/23 01:55:21;;;;;;;27.60;18.73;;;;;;;;;;5073731;28;20492;-46
2021/09/23 01:57:47;;;;;;;31.97;20.00;;;;;;;;;;5073614;28;20419;-49
2021/09/23 02:00:13;;;;;;;28.90;20.30;;;;;;;;;;5073427;28;20894;-45
2021/09/23 02:02:39;;;;;;;31.50;19.50;;;;;;;;;;5073490;28;20889;-46
2021/09/23 02:05:06;;;;;;;27.53;18.17;;;;;;;;;;5073587;28;20402;-45
2021/09/23 02:07:32;;;;;;;23.53;17.80;;;;;;;;;;5073365;28;20560;-49
2021/09/23 02:09:58;;;;;;;26.43;17.40;;;;;;;;;;5073215;28;20435;-45
2021/09/23 02:12:24;;;;;;;27.40;17.77;;;;;;;;;;5073384;28;20879;-46
2021/09/23 02:14:50;;;;;;;28.20;17.90;;;;;;;;;;5073361;28;20401;-45
2021/09/23 02:17:16;;;;;;;23.30;16.90;;;;;;;;;;5073103;28;20440;-46
2021/09/23 02:19:42;;;;;;;25.57;16.60;;;;;;;;;;5073096;28;20443;-45
2021/09/23 02:22:08;;;;;;;27.63;16.10;;;;;;;;;;5073057;28;20968;-45
2021/09/23 02:24:34;;;;;;;21.57;15.83;;;;;;;;;;5072833;28;20401;-46
2021/09/23 02:27:00;;;;;;;21.77;14.23;;;;;;;;;;5073078;28;20436;-45
2021/09/23 02:29:26;;;;;;;20.87;14.77;;;;;;;;;;5072944;28;20408;-46
2021/09/23 02:31:52;;;;;;;20.97;14.50;;;;;;;;;;5072917;28;20460;-45
2021/09/23 02:34:18;;;;;;;25.33;15.10;;;;;;;;;;5072922;28;20455;-46
2021/09/23 02:36:44;;;;;;;22.97;15.43;;;;;;;;;;5072827;28;20421;-46
2021/09/23 02:39:10;;;;;;;23.10;15.00;;;;;;;;;;5072613;28;20397;-48
2021/09/23 02:41:36;;;;;;;16.23;12.30;;;;;;;;;;5073038;28;20405;-48
2021/09/23 02:44:02;;;;;;;15.67;12.60;;;;;;;;;;5072870;28;20778;-49
2021/09/23 02:46:28;;;;;;;18.03;13.33;;;;;;;;;;5072635;28;20456;-45
2021/09/23 02:48:55;;;;;;;23.93;14.70;;;;;;;;;;5072493;28;20450;-45
2021/09/23 02:51:22;;;;;;;21.93;13.30;;;;;;;;;;5072422;28;20463;-47
2021/09/23 02:53:48;;;;;;;18.70;12.93;;;;;;;;;;5072643;28;20900;-45
2021/09/23 02:56:14;;;;;;;20.80;14.27;;;;;;;;;;5072454;28;20428;-45
2021/09/23 02:58:40;;;;;;;25.40;13.40;;;;;;;;;;5072249;28;20478;-47
2021/09/23 03:01:06;;;;;;;20.77;13.63;;;;;;;;;;5072364;28;20402;-46
2021/09/23 03:03:32;;;;;;;18.37;13.40;;;;;;;;;;5072423;28;20794;-46
2021/09/23 03:05:57;;;;;;;19.80;12.33;;;;;;;;;;5072232;28;20405;-48
2021/09/23 03:08:24;;;;;;;17.87;12.73;;;;;;;;;;5072324;28;20758;-49
2021/09/23 03:10:50;;;;;;;16.47;12.23;;;;;;;;;;5072119;28;20448;-46
2021/09/23 03:13:16;;;;;;;14.37;12.17;;;;;;;;;;5072580;28;20399;-48
2021/09/23 03:15:42;;;;;;;18.03;13.27;;;;;;;;;;5072141;28;20893;-48
2021/09/23 03:18:08;;;;;;;17.30;12.47;;;;;;;;;;5072085;28;20482;-50
2021/09/23 03:20:34;;;;;;;22.73;14.20;;;;;;;;;;5071886;28;20400;-44
2021/09/23 03:23:00;;;;;;;16.50;13.80;;;;;;;;;;5072071;28;20400;-50
2021/09/23 03:25:29;;;;;;;21.00;13.80;;;;;;;;;;5072045;28;20463;-45
2021/09/23 03:27:56;;;;;;;23.70;14.17;;;;;;;;;;5072012;28;20933;-45
2021/09/23 03:30:22;;;;;;;24.13;16.13;;;;;;;;;;5071658;28;20798;-45
2021/09/23 03:32:48;;;;;;;24.87;14.60;;;;;;;;;;5071916;28;20400;-46
2021/09/23 03:35:14;;;;;;;28.83;15.80;;;;;;;;;;5071167;28;20396;-46
2021/09/23 03:37:40;;;;;;;21.33;14.23;;;;;;;;;;5071909;28;20416;-45
2021/09/23 03:40:07;;;;;;;19.57;14.20;;;;;;;;;;5071613;28;20480;-47
2021/09/23 03:42:33;;;;;;;31.13;15.93;;;;;;;;;;5071800;28;20469;-45
2021/09/23 03:44:59;;;;;;;18.17;13.43;;;;;;;;;;5071837;28;20498;-46
2021/09/23 03:47:25;;;;;;;22.80;14.40;;;;;;;;;;5071802;28;20423;-45
2021/09/23 03:49:51;;;;;;;17.67;13.17;;;;;;;;;;5071633;28;20402;-45
2021/09/23 03:52:17;;;;;;;23.03;15.00;;;;;;;;;;5071643;28;20457;-47
2021/09/23 03:54:43;;;;;;;19.37;14.20;;;;;;;;;;5071744;28;20401;-48
2021/09/23 03:57:08;;;;;;;23.20;13.70;;;;;;;;;;5071698;28;20505;-45
2021/09/23 03:59:34;;;;;;;23.87;14.00;;;;;;;;;;5071435;28;20402;-46
2021/09/23 04:02:00;;;;;;;20.73;12.60;;;;;;;;;;5071562;28;20415;-46
2021/09/23 04:04:26;;;;;;;19.73;14.37;;;;;;;;;;5071763;28;20432;-45
2021/09/23 04:06:52;;;;;;;22.67;14.17;;;;;;;;;;5071663;28;20431;-45
2021/09/23 04:09:18;;;;;;;19.80;13.57;;;;;;;;;;5071410;28;20400;-44
2021/09/23 04:11:44;;;;;;;14.90;11.87;;;;;;;;;;5071688;28;20460;-46
2021/09/23 04:14:10;;;;;;;15.63;12.00;;;;;;;;;;5071520;28;20919;-46
2021/09/23 04:16:37;;;;;;;17.03;12.70;;;;;;;;;;5071383;28;20932;-46
2021/09/23 04:19:03;;;;;;;16.23;12.17;;;;;;;;;;5071340;28;21005;-45
2021/09/23 04:21:29;;;;;;;16.20;12.97;;;;;;;;;;5071636;28;20424;-46
2021/09/23 04:23:55;;;;;;;17.00;12.77;;;;;;;;;;5071521;28;20888;-46
2021/09/23 04:26:21;;;;;;;16.70;11.97;;;;;;;;;;5071290;28;20440;-46
2021/09/23 04:28:47;;;;;;;18.63;11.80;;;;;;;;;;5071192;28;20928;-46
2021/09/23 04:31:13;;;;;;;15.80;12.60;;;;;;;;;;5071209;28;20445;-47
2021/09/23 04:33:39;;;;;;;16.90;12.57;;;;;;;;;;5071485;28;20542;-48
2021/09/23 04:36:05;;;;;;;16.60;12.27;;;;;;;;;;5071303;28;20487;-49
2021/09/23 04:38:31;;;;;;;23.13;13.07;;;;;;;;;;5071411;28;20397;-45
2021/09/23 04:40:57;;;;;;;16.37;12.93;;;;;;;;;;5071122;28;20402;-45
2021/09/23 04:43:23;;;;;;;19.43;11.43;;;;;;;;;;5071293;28;20421;-45
2021/09/23 04:45:49;;;;;;;17.87;12.30;;;;;;;;;;5071644;28;20839;-45
2021/09/23 04:48:15;;;;;;;23.17;13.67;;;;;;;;;;5075175;28;20401;-45
2021/09/23 04:50:41;;;;;;;17.97;12.27;;;;;;;;;;5074589;28;20451;-46
2021/09/23 04:53:07;;;;;;;17.70;13.90;;;;;;;;;;5074895;28;20401;-45
2021/09/23 04:55:33;;;;;;;16.80;12.43;;;;;;;;;;5074836;28;20458;-46
2021/09/23 04:58:00;;;;;;;17.17;12.77;;;;;;;;;;5074771;28;20416;-46
2021/09/23 05:00:26;;;;;;;19.00;13.77;;;;;;;;;;5074474;28;20401;-45
2021/09/23 05:02:52;;;;;;;17.53;11.80;;;;;;;;;;5074716;28;20405;-45
2021/09/23 05:05:18;;;;;;;24.53;13.30;;;;;;;;;;5074777;28;20437;-45
2021/09/23 05:07:44;;;;;;;18.57;12.13;;;;;;;;;;5074497;28;20781;-46
2021/09/23 05:10:10;;;;;;;21.40;13.00;;;;;;;;;;5074351;28;20401;-46
2021/09/23 05:12:36;;;;;;;17.07;12.10;;;;;;;;;;5075438;28;20390;-50
2021/09/23 05:15:02;;;;;;;16.67;13.00;;;;;;;;;;5073802;28;20454;-49
2021/09/23 05:17:28;;;;;;;15.23;11.13;;;;;;;;;;5074253;28;20471;-48
2021/09/23 05:20:00;;;;;;;16.33;12.40;;;;;;;;;;5074279;28;20444;-49
2021/09/23 05:22:28;;;;;;;14.57;12.20;;;;;;;;;;5074207;28;20462;-52
2021/09/23 05:24:55;;;;;;;18.53;12.53;;;;;;;;;;5074381;28;20406;-51
2021/09/23 05:27:21;;;;;;;16.23;12.70;;;;;;;;;;5073891;28;20500;-50
2021/09/23 05:29:47;;;;;;;19.63;14.17;;;;;;;;;;5073976;28;20918;-50
2021/09/23 05:32:13;;;;;;;21.43;12.50;;;;;;;;;;5074126;28;20552;-51
2021/09/23 05:34:39;;;;;;;16.93;11.80;;;;;;;;;;5074177;28;20396;-50
2021/09/23 05:37:05;;;;;;;17.80;11.70;;;;;;;;;;5074134;28;20936;-51
2021/09/23 05:39:31;;;;;;;15.07;10.33;;;;;;;;;;5073938;28;20821;-49
2021/09/23 05:41:57;;;;;;;16.53;10.97;;;;;;;;;;5073693;28;20443;-49
2021/09/23 05:44:23;;;;;;;18.60;13.00;;;;;;;;;;5074056;28;20432;-52
2021/09/23 05:46:53;;;;;;;14.80;10.03;;;;;;;;;;5073911;28;20830;-51
2021/09/23 05:49:19;;;;;;;13.63;10.90;;;;;;;;;;5073688;28;20462;-52
2021/09/23 05:51:46;;;;;;;14.90;11.07;;;;;;;;;;5073681;28;21067;-51
2021/09/23 05:54:11;;;;;;;13.33;11.17;;;;;;;;;;5073696;28;20397;-51
2021/09/23 05:56:38;;;;;;;16.13;11.87;;;;;;;;;;5073623;28;20834;-52
2021/09/23 05:59:04;;;;;;;15.13;10.50;;;;;;;;;;5072549;28;20397;-51
2021/09/23 06:01:30;;;;;;;18.73;10.50;;;;;;;;;;5073112;28;20408;-49
2021/09/23 06:03:56;;;;;;;15.30;10.70;;;;;;;;;;5071529;28;20405;-51
2021/09/23 06:06:22;;;;;;;12.13;10.30;;;;;;;;;;5073086;28;20425;-52
2021/09/23 06:08:48;;;;;;;14.37;11.10;;;;;;;;;;5072454;28;20887;-51
2021/09/23 06:11:15;;;;;;;18.70;11.77;;;;;;;;;;5071975;28;20531;-52
2021/09/23 06:13:41;;;;;;;21.03;11.97;;;;;;;;;;5072999;28;20404;-51
2021/09/23 06:16:07;;;;;;;14.00;10.47;;;;;;;;;;5072264;28;20423;-49
2021/09/23 06:18:33;;;;;;;15.43;9.80;;;;;;;;;;5072485;28;20432;-52
2021/09/23 06:21:00;;;;;;;19.70;11.50;;;;;;;;;;5072502;28;20435;-52
2021/09/23 06:23:26;;;;;;;16.17;9.83;;;;;;;;;;5068238;28;20435;-52
2021/09/23 06:25:52;;;;;;;12.20;9.17;;;;;;;;;;5063655;28;20978;-52
2021/09/23 06:28:18;;;;;;;13.30;9.27;;;;;;;;;;5073105;28;20377;-51
2021/09/23 06:30:44;;;;;;;11.37;7.73;;;;;;;;;;5071576;28;20450;-52
2021/09/23 06:33:10;;;;;;;10.23;7.90;;;;;;;;;;5071516;28;20919;-52
2021/09/23 06:35:36;;;;;;;13.10;8.00;;;;;;;;;;5072214;28;20433;-51
2021/09/23 06:38:02;;;;;;;13.70;7.83;;;;;;;;;;5072148;28;20403;-52
2021/09/23 06:40:28;;;;;;;10.53;7.20;;;;;;;;;;5071990;28;20399;-50
2021/09/23 06:42:54;;;;;;;7.33;6.40;;;;;;;;;;5072086;28;20378;-51
2021/09/23 06:45:20;;;;;;;10.30;8.30;;;;;;;;;;5072428;28;20400;-52
2021/09/23 06:47:46;;;;;;;8.80;6.57;;;;;;;;;;5072205;28;20426;-51
2021/09/23 06:50:12;;;;;;;8.53;6.50;;;;;;;;;;5071715;28;20811;-51
2021/09/23 06:52:38;;;;;;;10.83;6.60;;;;;;;;;;5072011;28;20891;-51
2021/09/23 06:55:04;;;;;;;6.63;5.47;;;;;;;;;;5071675;28;20407;-49
2021/09/23 06:57:30;;;;;;;8.10;5.77;;;;;;;;;;5071913;28;20446;-51
2021/09/23 06:59:56;;;;;;;8.30;5.87;;;;;;;;;;5071832;28;20450;-50
2021/09/23 07:02:22;;;;;;;10.90;6.03;;;;;;;;;;5071874;28;20530;-53
2021/09/23 07:04:48;;;;;;;9.23;5.67;;;;;;;;;;5071651;28;20494;-52
2021/09/23 07:07:14;;;;;;;9.50;5.93;;;;;;;;;;5071785;28;20426;-52
2021/09/23 07:09:40;;;;;;;8.00;5.50;;;;;;;;;;5071273;28;20401;-51
2021/09/23 07:12:06;;;;;;;8.10;5.57;;;;;;;;;;5071507;28;20478;-53
2021/09/23 07:14:32;;;;;;;5.97;5.47;;;;;;;;;;5071772;28;20771;-53
2021/09/23 07:16:58;;;;;;;6.50;5.80;;;;;;;;;;5071512;28;20419;-51
2021/09/23 07:19:24;;;;;;;6.00;5.50;;;;;;;;;;5071506;28;20404;-51
2021/09/23 07:21:50;;;;;;;7.63;6.10;;;;;;;;;;5071282;28;20774;-49
2021/09/23 07:24:16;;;;;;;6.50;5.90;;;;;;;;;;5071387;28;20825;-51
2021/09/23 07:26:42;;;;;;;10.13;7.07;;;;;;;;;;5071369;28;20423;-52
2021/09/23 07:29:09;;;;;;;6.57;5.33;;;;;;;;;;5071257;28;20415;-53
2021/09/23 07:31:35;;;;;;;6.17;5.50;;;;;;;;;;5071159;28;20452;-50
2021/09/23 07:34:01;;;;;;;6.27;5.67;;;;;;;;;;5071201;28;20400;-52
2021/09/23 07:36:27;;;;;;;7.53;6.00;;;;;;;;;;5071422;28;20413;-49
2021/09/23 07:38:53;;;;;;;6.83;5.53;;;;;;;;;;5071001;28;20400;-51
2021/09/23 07:41:19;;;;;;;6.97;5.70;;;;;;;;;;5070913;28;20398;-52
2021/09/23 07:43:45;;;;;;;7.67;6.53;;;;;;;;;;5071355;28;20462;-53
2021/09/23 07:46:11;;;;;;;6.50;5.33;;;;;;;;;;5070973;28;20499;-53
2021/09/23 07:48:37;;;;;;;8.63;5.60;;;;;;;;;;5071124;28;20794;-52
2021/09/23 07:51:03;;;;;;;11.93;5.73;;;;;;;;;;5070783;28;20877;-53
2021/09/23 07:53:32;;;;;;;7.93;5.33;;;;;;;;;;5071050;28;20409;-51
2021/09/23 07:55:57;;;;;;;8.57;5.80;;;;;;;;;;5071086;28;20483;-52
2021/09/23 07:58:23;;;;;;;5.17;4.67;;;;;;;;;;5071191;28;20490;-52
2021/09/23 08:00:49;;;;;;;5.97;4.97;;;;;;;;;;5070491;28;20415;-49
2021/09/23 08:03:15;;;;;;;7.07;5.70;;;;;;;;;;5069678;28;20496;-51
2021/09/23 08:05:41;;;;;;;7.47;6.00;;;;;;;;;;5069212;28;20401;-51
2021/09/23 08:08:09;;;;;;;8.77;6.67;;;;;;;;;;5069073;28;20405;-50
2021/09/23 08:10:35;;;;;;;9.73;5.17;;;;;;;;;;5068959;28;20448;-51
2021/09/23 08:13:01;;;;;;;7.70;6.27;;;;;;;;;;5069051;28;20408;-50
2021/09/23 08:15:28;;;;;;;8.83;7.10;;;;;;;;;;5069378;28;20771;-52
2021/09/23 08:17:54;;;;;;;10.20;5.40;;;;;;;;;;5069799;28;20954;-53
2021/09/23 08:20:20;;;;;;;7.43;5.90;;;;;;;;;;5070860;28;20396;-52
2021/09/23 08:22:47;;;;;;;8.67;6.40;;;;;;;;;;5075130;28;20404;-52
2021/09/23 08:25:13;;;;;;;7.63;6.00;;;;;;;;;;5075023;28;20469;-52
2021/09/23 08:27:39;;;;;;;9.97;7.27;;;;;;;;;;5074962;28;20418;-53
2021/09/23 08:30:05;;;;;;;7.63;6.80;;;;;;;;;;5074716;28;20400;-52
2021/09/23 08:32:31;;;;;;;10.03;6.70;;;;;;;;;;5074702;28;20494;-52
2021/09/23 08:34:57;;;;;;;9.03;6.37;;;;;;;;;;5074619;28;20437;-52
2021/09/23 08:37:23;;;;;;;10.03;6.00;;;;;;;;;;5074720;28;20426;-52
2021/09/23 08:39:49;;;;;;;9.07;6.97;;;;;;;;;;5074191;28;20406;-51
2021/09/23 08:42:16;;;;;;;7.90;7.03;;;;;;;;;;5074633;28;20400;-51
2021/09/23 08:44:42;;;;;;;8.80;6.27;;;;;;;;;;5074723;28;20442;-52
2021/09/23 08:47:08;;;;;;;12.37;5.97;;;;;;;;;;5074356;28;20480;-53
2021/09/23 08:49:35;;;;;;;5.90;5.30;;;;;;;;;;5074237;28;20489;-53
2021/09/23 08:52:01;;;;;;;8.63;5.83;;;;;;;;;;5074227;28;20463;-52
2021/09/23 08:54:27;;;;;;;6.43;5.83;;;;;;;;;;5074691;28;20400;-53
2021/09/23 08:56:53;;;;;;;7.10;5.80;;;;;;;;;;5074152;28;20423;-53
2021/09/23 08:59:19;;;;;;;8.40;5.50;;;;;;;;;;5074094;28;20450;-53
2021/09/23 09:01:50;;;;;;;9.33;6.00;;;;;;;;;;5074253;28;20459;-52
2021/09/23 09:04:16;;;;;;;7.77;5.23;;;;;;;;;;5074262;28;20405;-52
2021/09/23 09:06:58;;;;;;;7.17;5.90;;;;;;;;;;5074083;28;20471;-52
2021/09/23 09:09:24;;;;;;;7.27;5.20;;;;;;;;;;5072660;28;20447;-52
2021/09/23 09:11:54;;;;;;;10.50;5.97;;;;;;;;;;5073933;28;20491;-53
2021/09/23 09:14:27;;;;;;;7.10;5.60;;;;;;;;;;5074144;28;20432;-52
2021/09/23 09:16:55;;;;;;;8.43;5.33;;;;;;;;;;5073678;28;20938;-51
2021/09/23 09:19:21;;;;;;;6.00;4.90;;;;;;;;;;5073809;28;20957;-53
2021/09/23 09:21:47;;;;;;;7.23;5.23;;;;;;;;;;5073883;28;20404;-52
2021/09/23 09:24:17;;;;;;;11.10;6.07;;;;;;;;;;5073804;28;20405;-52
2021/09/23 09:26:44;;;;;;;6.13;5.53;;;;;;;;;;5073770;28;20832;-53
2021/09/23 09:29:11;;;;;;;5.93;5.20;;;;;;;;;;5073525;28;20405;-53
2021/09/23 09:31:37;;;;;;;7.37;5.03;;;;;;;;;;5073429;28;20978;-51
2021/09/23 09:34:05;;;;;;;8.37;5.30;;;;;;;;;;5072396;28;20404;-51
2021/09/23 09:36:36;;;;;;;7.40;5.10;;;;;;;;;;5072525;28;20417;-53
2021/09/23 09:39:07;;;;;;;7.40;4.70;;;;;;;;;;5064580;28;21057;-53
2021/09/23 09:41:37;;;;;;;5.53;5.00;;;;;;;;;;5052878;28;20413;-49
2021/09/23 09:44:08;;;;;;;5.10;4.70;;;;;;;;;;5060367;28;20405;-51
2021/09/23 09:46:35;;;;;;;5.43;4.40;;;;;;;;;;5061427;28;20432;-52
2021/09/23 09:49:01;;;;;;;6.13;4.53;;;;;;;;;;5073819;28;20404;-53
2021/09/23 09:51:42;;;;;;;7.30;5.00;;;;;;;;;;5073416;28;20802;-52
2021/09/23 09:54:09;;;;;;;8.07;5.50;;;;;;;;;;5072458;28;20396;-51
2021/09/23 09:56:36;;;;;;;5.70;4.83;;;;;;;;;;5073967;28;20830;-52
2021/09/23 09:59:12;;;;;;;6.93;4.80;;;;;;;;;;5073538;28;20432;-50
2021/09/23 10:01:42;;;;;;;7.73;5.70;;;;;;;;;;5073780;28;20412;-50
2021/09/23 10:04:08;;;;;;;11.30;5.43;;;;;;;;;;5073508;28;20944;-52
2021/09/23 10:06:35;;;;;;;7.00;4.97;;;;;;;;;;5073368;28;20424;-53
2021/09/23 10:09:01;;;;;;;7.33;5.00;;;;;;;;;;5073231;28;20844;-52
2021/09/23 10:11:27;;;;;;;6.20;4.50;;;;;;;;;;5073192;28;20456;-51
2021/09/23 10:13:54;;;;;;;7.23;4.40;;;;;;;;;;5073408;28;20953;-51
2021/09/23 10:16:21;;;;;;;7.80;5.07;;;;;;;;;;5073366;28;20477;-53
2021/09/23 10:18:47;;;;;;;8.87;5.80;;;;;;;;;;5073322;28;20420;-52
2021/09/23 10:21:13;;;;;;;8.37;6.33;;;;;;;;;;5072995;28;20400;-50
2021/09/23 10:23:40;;;;;;;12.57;5.80;;;;;;;;;;5073263;28;20407;-52
2021/09/23 10:26:07;;;;;;;4.97;4.47;;;;;;;;;;5073096;28;20502;-51
2021/09/23 10:28:34;;;;;;;10.13;7.30;;;;;;;;;;5073077;28;20403;-53
2021/09/23 10:31:00;;;;;;;7.93;5.80;;;;;;;;;;5072728;28;20445;-52
2021/09/23 10:33:26;;;;;;;7.17;4.60;;;;;;;;;;5073110;28;20785;-52
2021/09/23 10:35:52;;;;;;;4.77;4.30;;;;;;;;;;5072780;28;20397;-51
2021/09/23 10:38:18;;;;;;;8.87;5.30;;;;;;;;;;5072900;28;20395;-50
2021/09/23 10:40:44;;;;;;;8.93;4.97;;;;;;;;;;5072775;28;21036;-53
2021/09/23 10:43:15;;;;;;;9.80;4.40;;;;;;;;;;5072888;28;20497;-52
2021/09/23 10:45:42;;;;;;;13.70;4.00;;;;;;;;;;5072513;28;20808;-51
2021/09/23 10:48:08;;;;;;;9.53;4.80;;;;;;;;;;5073241;28;20502;-51
2021/09/23 10:50:36;;;;;;;4.83;4.40;;;;;;;;;;5072333;28;20407;-52
2021/09/23 10:53:05;;;;;;;4.77;3.90;;;;;;;;;;5072650;28;20397;-51
2021/09/23 10:55:32;;;;;;;7.40;3.80;;;;;;;;;;5072690;28;20478;-52
2021/09/23 10:57:59;;;;;;;3.87;3.53;;;;;;;;;;5072541;28;20420;-50
2021/09/23 11:00:26;;;;;;;5.07;4.57;;;;;;;;;;5072170;28;20402;-52
2021/09/23 11:02:53;;;;;;;5.07;4.03;;;;;;;;;;5072316;28;20396;-51
2021/09/23 11:05:20;;;;;;;6.03;4.90;;;;;;;;;;5072435;28;20479;-52
2021/09/23 11:07:47;;;;;;;4.60;4.10;;;;;;;;;;5072359;28;20465;-52
2021/09/23 11:10:16;;;;;;;5.33;3.80;;;;;;;;;;5072133;28;20908;-51
2021/09/23 11:12:43;;;;;;;5.87;3.90;;;;;;;;;;5070842;28;20486;-53
2021/09/23 11:15:10;;;;;;;5.60;4.00;;;;;;;;;;5072253;28;20881;-51
2021/09/23 11:17:37;;;;;;;5.93;4.40;;;;;;;;;;5071873;28;20478;-52
2021/09/23 11:20:03;;;;;;;5.50;4.47;;;;;;;;;;5071881;28;20895;-53
2021/09/23 11:22:31;;;;;;;4.40;4.00;;;;;;;;;;5072103;28;20982;-53
2021/09/23 11:24:58;;;;;;;4.70;4.30;;;;;;;;;;5072350;28;20492;-53
2021/09/23 11:27:25;;;;;;;11.07;5.00;;;;;;;;;;5071986;28;20567;-53
2021/09/23 11:29:51;;;;;;;5.10;4.10;;;;;;;;;;5072481;28;20824;-50
2021/09/23 11:32:20;;;;;;;6.40;4.17;;;;;;;;;;5071812;28;20955;-46
2021/09/23 11:34:55;;;;;;;5.90;5.30;;;;;;;;;;5071997;28;20397;-46
2021/09/23 11:37:27;;;;;;;5.53;4.50;;;;;;;;;;5067805;28;20493;-47
2021/09/23 11:39:57;;;;;;;8.33;5.50;;;;;;;;;;5062925;28;20474;-47
2021/09/23 11:42:23;;;;;;;9.13;5.10;;;;;;;;;;5071612;28;20546;-46
2021/09/23 11:44:50;;;;;;;9.90;5.13;;;;;;;;;;5071774;28;20400;-48
2021/09/23 11:47:17;;;;;;;4.63;4.23;;;;;;;;;;5071743;28;20520;-45
2021/09/23 11:49:43;;;;;;;6.20;5.10;;;;;;;;;;5071424;28;20483;-46
2021/09/23 11:52:09;;;;;;;10.00;4.47;;;;;;;;;;5071855;28;20551;-46
2021/09/23 11:54:36;;;;;;;7.43;4.73;;;;;;;;;;5071894;28;20927;-46
2021/09/23 11:57:05;;;;;;;6.20;5.37;;;;;;;;;;5070682;28;20420;-47
2021/09/23 11:59:31;;;;;;;5.20;4.40;;;;;;;;;;5071602;28;20769;-56
2021/09/23 12:02:05;;;;;;;6.33;4.70;;;;;;;;;;5071736;28;20772;-47
2021/09/23 12:04:34;;;;;;;8.73;4.33;;;;;;;;;;5071638;28;20405;-49
2021/09/23 12:07:07;;;;;;;6.50;4.03;;;;;;;;;;5071539;28;20585;-46
2021/09/23 12:09:34;;;;;;;7.33;4.43;;;;;;;;;;5071115;28;20479;-47
2021/09/23 12:12:03;;;;;;;8.53;4.17;;;;;;;;;;5071447;28;20903;-47
2021/09/23 12:14:29;;;;;;;4.93;4.50;;;;;;;;;;5071539;28;20907;-49
2021/09/23 12:17:02;;;;;;;7.33;4.80;;;;;;;;;;5071200;28;20577;-46
2021/09/23 12:19:28;;;;;;;5.57;3.70;;;;;;;;;;5071456;28;20852;-47
2021/09/23 12:21:55;;;;;;;8.10;4.67;;;;;;;;;;5071070;28;20405;-50
2021/09/23 12:24:41;;;;;;;5.83;5.00;;;;;;;;;;5071334;28;20424;-47
2021/09/23 12:27:07;;;;;;;4.90;4.00;;;;;;;;;;5071564;28;20416;-47
2021/09/23 12:29:34;;;;;;;5.93;3.77;;;;;;;;;;5071266;28;20822;-51
2021/09/23 12:32:04;;;;;;;4.10;3.70;;;;;;;;;;5071158;28;20816;-47
2021/09/23 12:34:30;;;;;;;6.53;4.00;;;;;;;;;;5071225;28;20907;-47
2021/09/23 12:37:00;;;;;;;8.00;4.67;;;;;;;;;;5071210;28;20412;-46
2021/09/23 12:39:35;;;;;;;7.60;3.80;;;;;;;;;;5071069;28;20409;-46
2021/09/23 12:42:03;;;;;;;6.10;4.53;;;;;;;;;;5071029;28;20442;-47
2021/09/23 12:44:30;;;;;;;5.20;4.70;;;;;;;;;;5071178;28;20458;-46
2021/09/23 12:47:12;;;;;;;8.50;5.23;;;;;;;;;;5070595;28;20451;-47
2021/09/23 12:49:39;;;;;;;6.53;4.30;;;;;;;;;;5070886;28;20472;-49
2021/09/23 12:52:13;;;;;;;9.40;5.07;;;;;;;;;;5070896;28;20452;-47
2021/09/23 12:54:47;;;;;;;7.20;5.73;;;;;;;;;;5068158;28;20405;-47
2021/09/23 12:57:16;;;;;;;7.47;5.43;;;;;;;;;;5070673;28;20416;-49
2021/09/23 12:59:42;;;;;;;6.40;4.40;;;;;;;;;;5070253;28;20400;-47
2021/09/23 13:02:09;;;;;;;7.17;5.60;;;;;;;;;;5071297;28;20915;-46
2021/09/23 13:04:35;;;;;;;5.40;4.60;;;;;;;;;;5069761;28;20399;-49
2021/09/23 13:07:20;;;;;;;8.80;4.20;;;;;;;;;;5070293;28;20470;-48
2021/09/23 13:10:05;;;;;;;7.90;4.90;;;;;;;;;;5073199;28;20400;-46
2021/09/23 13:12:37;;;;;;;5.20;4.03;;;;;;;;;;5074373;28;20908;-46
2021/09/23 13:15:16;;;;;;;15.90;4.83;;;;;;;;;;5074415;28;20400;-46
2021/09/23 13:17:42;;;;;;;4.50;3.50;;;;;;;;;;5074122;28;20454;-47
2021/09/23 13:20:09;;;;;;;4.47;4.17;;;;;;;;;;5074109;28;20890;-46
2021/09/23 13:22:38;;;;;;;5.73;4.47;;;;;;;;;;5074265;28;20461;-46
2021/09/23 13:25:04;;;;;;;5.73;5.20;;;;;;;;;;5072372;28;20504;-46
2021/09/23 13:27:30;;;;;;;6.20;5.10;;;;;;;;;;5074369;28;20483;-47
2021/09/23 13:29:56;;;;;;;10.23;4.90;;;;;;;;;;5074179;28;20400;-47
2021/09/23 13:32:22;;;;;;;8.83;5.90;;;;;;;;;;5074153;28;20951;-46
2021/09/23 13:34:48;;;;;;;6.50;5.70;;;;;;;;;;5073722;28;20746;-49
2021/09/23 13:37:14;;;;;;;8.17;6.13;;;;;;;;;;5080945;28;20446;-46
2021/09/23 13:39:40;;;;;;;6.43;5.10;;;;;;;;;;5094096;28;20395;-56
2021/09/23 13:42:06;;;;;;;6.67;5.40;;;;;;;;;;5093906;28;20417;-46
2021/09/23 13:44:32;;;;;;;15.97;7.23;;;;;;;;;;5094252;28;20410;-46
2021/09/23 13:46:59;;;;;;;10.40;4.77;;;;;;;;;;5094114;28;20506;-48
2021/09/23 13:49:25;;;;;;;6.17;5.57;;;;;;;;;;5094002;28;20452;-47
2021/09/23 13:51:51;;;;;;;6.57;5.53;;;;;;;;;;5093784;28;20962;-46
2021/09/23 13:54:16;;;;;;;6.60;5.70;;;;;;;;;;5094357;28;20396;-46
2021/09/23 13:56:42;;;;;;;7.70;6.13;;;;;;;;;;5094037;28;20937;-47
2021/09/23 13:59:08;;;;;;;7.23;6.50;;;;;;;;;;5093901;28;20906;-49
2021/09/23 14:01:35;;;;;;;7.43;5.97;;;;;;;;;;5086507;28;20414;-50
2021/09/23 14:04:01;;;;;;;10.10;5.93;;;;;;;;;;5073393;28;20407;-48
2021/09/23 14:06:27;;;;;;;16.13;6.20;;;;;;;;;;5073443;28;20866;-47
2021/09/23 14:08:53;;;;;;;7.83;7.00;;;;;;;;;;5073711;28;20407;-49
2021/09/23 14:11:19;;;;;;;14.17;6.53;;;;;;;;;;5073153;28;20502;-46
2021/09/23 14:13:46;;;;;;;9.03;6.37;;;;;;;;;;5073332;28;20395;-46
2021/09/23 14:16:12;;;;;;;11.03;5.50;;;;;;;;;;5073281;28;20419;-48
2021/09/23 14:18:38;;;;;;;15.80;5.73;;;;;;;;;;5072370;28;20429;-47
2021/09/23 14:21:04;;;;;;;8.00;5.33;;;;;;;;;;5073003;28;20405;-48
2021/09/23 14:23:30;;;;;;;10.90;7.60;;;;;;;;;;5073504;28;20431;-46
2021/09/23 14:25:56;;;;;;;8.57;5.77;;;;;;;;;;5073169;28;20761;-46
2021/09/23 14:28:22;;;;;;;7.63;5.10;;;;;;;;;;5073205;28;20424;-47
2021/09/23 14:30:48;;;;;;;12.07;5.47;;;;;;;;;;5072777;28;20492;-47